createdAt,value
2019-02-25T00:01:16.390Z,8.03
2019-02-25T00:03:46.848Z,8.87
2019-02-25T00:06:16.897Z,7.80
2019-02-25T00:08:46.920Z,7.50
2019-02-25T00:11:16.965Z,7.93
2019-02-25T00:13:47.074Z,7.97
2019-02-25T00:16:17.881Z,8.97
2019-02-25T00:18:48.283Z,7.80
2019-02-25T00:21:18.349Z,8.00
2019-02-25T00:23:48.692Z,8.57
2019-02-25T00:26:18.997Z,8.10
2019-02-25T00:28:49.161Z,8.60
2019-02-25T00:31:19.210Z,8.53
2019-02-25T00:33:49.240Z,7.90
2019-02-25T00:36:19.321Z,7.70
2019-02-25T00:38:49.448Z,9.43
2019-02-25T00:41:19.427Z,8.10
2019-02-25T00:43:49.749Z,10.03
2019-02-25T00:46:19.725Z,10.20
2019-02-25T00:48:49.877Z,8.10
2019-02-25T00:51:19.931Z,8.37
2019-02-25T00:53:50.538Z,7.83
2019-02-25T00:56:20.657Z,8.40
2019-02-25T00:58:50.697Z,9.63
2019-02-25T01:01:21.041Z,8.63
2019-02-25T01:03:51.052Z,8.97
2019-02-25T01:06:21.021Z,8.60
2019-02-25T01:08:51.098Z,9.13
2019-02-25T01:11:21.140Z,8.90
2019-02-25T01:13:51.254Z,7.73
2019-02-25T01:16:21.269Z,7.83
2019-02-25T01:18:51.278Z,8.80
2019-02-25T01:21:21.297Z,8.03
2019-02-25T01:23:51.336Z,8.07
2019-02-25T01:26:21.461Z,10.40
2019-02-25T01:28:51.591Z,8.80
2019-02-25T01:31:21.662Z,9.43
2019-02-25T01:33:51.634Z,9.57
2019-02-25T01:36:21.633Z,8.20
2019-02-25T01:38:51.659Z,8.53
2019-02-25T01:41:21.617Z,8.93
2019-02-25T01:43:51.630Z,9.47
2019-02-25T01:46:21.607Z,9.00
2019-02-25T01:48:51.597Z,8.93
2019-02-25T01:51:22.289Z,10.30
2019-02-25T01:53:52.323Z,9.90
2019-02-25T01:56:22.301Z,9.40
2019-02-25T01:58:52.713Z,10.67
2019-02-25T02:01:22.995Z,12.77
2019-02-25T02:03:52.929Z,11.53
2019-02-25T02:06:23.115Z,11.60
2019-02-25T02:08:53.639Z,13.37
2019-02-25T02:11:23.757Z,12.77
2019-02-25T02:13:54.053Z,12.43
2019-02-25T02:16:24.045Z,11.37
2019-02-25T02:18:54.097Z,11.40
2019-02-25T02:21:24.193Z,12.30
2019-02-25T02:23:54.343Z,12.40
2019-02-25T02:26:24.325Z,11.50
2019-02-25T02:28:54.333Z,11.97
2019-02-25T02:31:24.430Z,12.40
2019-02-25T02:33:54.629Z,11.70
2019-02-25T02:36:24.685Z,12.90
2019-02-25T02:38:54.749Z,11.47
2019-02-25T02:41:24.712Z,10.97
2019-02-25T02:43:54.941Z,12.00
2019-02-25T02:46:49.117Z,11.00
2019-02-25T02:49:19.157Z,12.43
2019-02-25T02:51:49.166Z,11.57
2019-02-25T02:54:19.430Z,11.83
2019-02-25T02:56:49.685Z,10.83
2019-02-25T02:59:19.706Z,11.30
2019-02-25T03:01:49.689Z,10.93
2019-02-25T03:04:20.008Z,11.77
2019-02-25T03:06:50.302Z,10.43
2019-02-25T03:09:20.597Z,10.63
2019-02-25T03:11:51.020Z,10.17
2019-02-25T03:14:21.177Z,9.90
2019-02-25T03:16:52.701Z,9.20
2019-02-25T03:19:22.681Z,8.93
2019-02-25T03:21:52.821Z,8.97
2019-02-25T03:24:23.060Z,10.13
2019-02-25T03:26:53.003Z,8.67
2019-02-25T03:29:23.010Z,7.97
2019-02-25T03:31:53.264Z,7.70
2019-02-25T03:34:23.361Z,7.83
2019-02-25T03:36:53.581Z,7.50
2019-02-25T03:39:23.579Z,6.30
2019-02-25T03:41:53.674Z,7.43
2019-02-25T03:44:23.713Z,8.00
2019-02-25T03:46:54.145Z,6.90
2019-02-25T03:49:24.156Z,7.30
2019-02-25T03:51:54.332Z,7.67
2019-02-25T03:54:24.607Z,7.13
2019-02-25T03:56:54.694Z,6.80
2019-02-25T03:59:24.914Z,7.07
2019-02-25T04:01:55.010Z,7.13
2019-02-25T04:04:25.061Z,6.93
2019-02-25T04:06:55.224Z,6.17
2019-02-25T04:09:25.420Z,6.50
2019-02-25T04:11:55.406Z,7.80
2019-02-25T04:14:25.585Z,8.20
2019-02-25T04:16:55.617Z,8.03
2019-02-25T04:19:25.657Z,5.60
2019-02-25T04:21:55.652Z,6.63
2019-02-25T04:24:26.687Z,5.87
2019-02-25T04:26:56.726Z,5.60
2019-02-25T04:29:27.002Z,5.87
2019-02-25T04:31:57.261Z,6.30
2019-02-25T04:34:28.745Z,6.40
2019-02-25T04:36:58.745Z,6.10
2019-02-25T04:39:29.225Z,6.07
2019-02-25T04:41:59.135Z,5.90
2019-02-25T04:44:29.101Z,10.60
2019-02-25T04:46:59.149Z,11.20
2019-02-25T04:49:29.198Z,10.80
2019-02-25T04:51:59.201Z,10.00
2019-02-25T04:54:29.372Z,9.97
2019-02-25T04:56:59.353Z,11.47
2019-02-25T04:59:29.330Z,10.50
2019-02-25T05:01:59.375Z,11.10
2019-02-25T05:04:29.433Z,10.00
2019-02-25T05:06:59.505Z,9.03
2019-02-25T05:09:29.457Z,8.33
2019-02-25T05:11:59.547Z,9.07
2019-02-25T05:14:29.527Z,8.40
2019-02-25T05:16:59.565Z,8.60
2019-02-25T05:19:30.234Z,9.17
2019-02-25T05:22:00.281Z,8.67
2019-02-25T05:24:30.410Z,8.00
2019-02-25T05:27:00.482Z,8.07
2019-02-25T05:29:30.423Z,7.60
2019-02-25T05:32:00.924Z,7.93
2019-02-25T05:34:30.913Z,7.00
2019-02-25T05:37:01.908Z,7.53
2019-02-25T05:39:31.908Z,7.90
2019-02-25T05:42:02.454Z,8.73
2019-02-25T05:44:32.590Z,7.80
2019-02-25T05:47:02.564Z,8.67
2019-02-25T05:49:32.569Z,19.57
2019-02-25T05:52:02.645Z,11.67
2019-02-25T05:54:33.060Z,11.67
2019-02-25T05:57:03.519Z,9.30
2019-02-25T05:59:33.754Z,10.00
2019-02-25T06:02:05.419Z,10.87
2019-02-25T06:04:36.074Z,8.20
2019-02-25T06:07:06.177Z,11.77
2019-02-25T06:09:36.339Z,17.10
2019-02-25T06:12:06.326Z,15.97
2019-02-25T06:14:36.834Z,12.97
2019-02-25T06:17:06.589Z,17.80
2019-02-25T06:19:36.551Z,16.57
2019-02-25T06:22:06.630Z,19.03
2019-02-25T06:24:36.652Z,14.20
2019-02-25T06:27:06.717Z,13.60
2019-02-25T06:29:37.026Z,17.70
2019-02-25T06:32:07.202Z,11.57
2019-02-25T06:34:37.829Z,12.57
2019-02-25T06:37:08.160Z,8.50
2019-02-25T06:39:38.227Z,9.00
2019-02-25T06:42:09.246Z,7.60
2019-02-25T06:44:39.254Z,8.80
2019-02-25T06:47:09.525Z,11.60
2019-02-25T06:49:40.753Z,14.80
2019-02-25T06:52:10.902Z,12.77
2019-02-25T06:54:41.138Z,10.20
2019-02-25T06:57:11.358Z,9.27
2019-02-25T06:59:41.806Z,7.70
2019-02-25T07:02:11.857Z,9.17
2019-02-25T07:04:56.192Z,10.67
2019-02-25T07:07:44.034Z,10.27
2019-02-25T07:10:39.577Z,8.10
2019-02-25T07:13:43.446Z,7.10
2019-02-25T07:16:47.571Z,7.23
2019-02-25T07:19:30.685Z,6.70
2019-02-25T07:22:31.779Z,10.10
2019-02-25T07:25:20.617Z,9.90
2019-02-25T07:28:24.541Z,12.03
2019-02-25T07:31:19.583Z,9.90
2019-02-25T07:34:20.421Z,10.47
2019-02-25T07:37:08.348Z,11.40
2019-02-25T07:40:12.390Z,9.87
2019-02-25T07:42:50.404Z,12.53
2019-02-25T07:45:38.169Z,13.43
2019-02-25T07:48:22.341Z,10.87
2019-02-25T07:51:04.167Z,10.37
2019-02-25T07:53:59.587Z,9.10
2019-02-25T07:56:51.722Z,13.37
2019-02-25T07:59:58.940Z,11.70
2019-02-25T08:02:46.301Z,9.73
2019-02-25T08:05:24.703Z,9.30
2019-02-25T08:08:14.651Z,9.40
2019-02-25T08:11:12.504Z,11.63
2019-02-25T08:13:48.686Z,12.20
2019-02-25T08:16:38.205Z,13.27
2019-02-25T08:19:33.262Z,12.70
2019-02-25T08:22:20.442Z,13.20
2019-02-25T08:25:12.201Z,13.53
2019-02-25T08:28:19.707Z,12.60
2019-02-25T08:31:09.265Z,14.80
2019-02-25T08:34:18.879Z,13.03
2019-02-25T08:37:38.566Z,14.17
2019-02-25T08:40:39.765Z,14.00
2019-02-25T08:43:32.926Z,14.93
2019-02-25T08:46:10.987Z,13.30
2019-02-25T08:48:46.575Z,13.13
2019-02-25T08:51:16.998Z,14.03
2019-02-25T08:53:47.054Z,14.50
2019-02-25T08:56:17.278Z,12.90
2019-02-25T08:58:47.435Z,14.33
2019-02-25T09:01:17.639Z,14.00
2019-02-25T09:03:47.829Z,13.47
2019-02-25T09:06:18.313Z,13.80
2019-02-25T09:08:48.717Z,13.70
2019-02-25T09:11:18.912Z,14.10
2019-02-25T09:13:49.045Z,14.60
2019-02-25T09:16:19.568Z,15.47
2019-02-25T09:18:49.802Z,14.60
2019-02-25T09:21:20.161Z,15.83
2019-02-25T09:23:50.273Z,15.40
2019-02-25T09:26:20.278Z,16.60
2019-02-25T09:28:50.418Z,15.70
2019-02-25T09:31:20.522Z,15.13
2019-02-25T09:33:50.601Z,15.30
2019-02-25T09:36:20.570Z,14.10
2019-02-25T09:38:50.713Z,16.20
2019-02-25T09:41:29.479Z,15.93
2019-02-25T09:43:52.410Z,22.50
2019-02-25T09:46:23.477Z,16.17
2019-02-25T09:48:53.469Z,15.17
2019-02-25T09:51:23.955Z,14.57
2019-02-25T09:53:54.127Z,15.23
2019-02-25T09:56:24.382Z,15.37
2019-02-25T09:58:54.426Z,15.83
2019-02-25T10:01:24.394Z,14.53
2019-02-25T10:03:54.389Z,15.30
2019-02-25T10:06:24.477Z,15.53
2019-02-25T10:08:54.569Z,14.83
2019-02-25T10:11:24.593Z,19.70
2019-02-25T10:13:54.742Z,16.37
2019-02-25T10:16:24.748Z,17.00
2019-02-25T10:18:54.771Z,16.63
2019-02-25T10:21:24.759Z,15.80
2019-02-25T10:23:55.613Z,13.70
2019-02-25T10:26:25.702Z,16.40
2019-02-25T10:28:55.683Z,16.27
2019-02-25T10:31:25.724Z,16.60
2019-02-25T10:33:55.788Z,15.80
2019-02-25T10:36:25.814Z,17.00
2019-02-25T10:38:55.799Z,16.10
2019-02-25T10:41:27.750Z,17.50
2019-02-25T10:43:58.167Z,16.40
2019-02-25T10:46:29.152Z,18.77
2019-02-25T10:49:04.939Z,15.80
2019-02-25T10:51:31.464Z,16.73
2019-02-25T10:54:01.690Z,18.57
2019-02-25T10:56:54.104Z,18.00
2019-02-25T10:59:24.535Z,18.40
2019-02-25T11:01:54.514Z,17.20
2019-02-25T11:04:26.257Z,17.27
2019-02-25T11:06:56.390Z,16.33
2019-02-25T11:09:33.421Z,20.07
2019-02-25T11:12:03.422Z,18.23
2019-02-25T11:14:35.725Z,16.10
2019-02-25T11:17:05.574Z,16.20
2019-02-25T11:19:35.610Z,18.13
2019-02-25T11:22:07.802Z,17.63
2019-02-25T11:24:37.368Z,17.73
2019-02-25T11:27:07.765Z,14.70
2019-02-25T11:29:40.055Z,17.00
2019-02-25T11:32:10.385Z,15.57
2019-02-25T11:34:40.539Z,16.37
2019-02-25T11:37:10.635Z,16.00
2019-02-25T11:39:40.646Z,15.33
2019-02-25T11:42:12.865Z,15.30
2019-02-25T11:44:42.546Z,14.97
2019-02-25T11:47:12.965Z,16.23
2019-02-25T11:49:43.033Z,13.33
2019-02-25T11:52:13.315Z,14.50
2019-02-25T11:54:43.608Z,13.97
2019-02-25T11:57:13.632Z,14.50
2019-02-25T11:59:43.617Z,14.00
2019-02-25T12:02:13.634Z,15.30
2019-02-25T12:04:43.658Z,14.70
2019-02-25T12:07:14.105Z,13.50
2019-02-25T12:09:44.175Z,13.27
2019-02-25T12:12:14.158Z,11.00
2019-02-25T12:14:44.133Z,12.00
2019-02-25T12:17:14.153Z,12.53
2019-02-25T12:19:44.172Z,11.40
2019-02-25T12:22:14.274Z,10.60
2019-02-25T12:24:44.323Z,10.47
2019-02-25T12:27:14.270Z,9.83
2019-02-25T12:29:44.420Z,9.67
2019-02-25T12:32:14.521Z,9.50
2019-02-25T12:34:44.468Z,8.63
2019-02-25T12:37:14.497Z,9.40
2019-02-25T12:39:44.530Z,9.20
2019-02-25T12:42:14.545Z,9.40
2019-02-25T12:44:44.542Z,8.40
2019-02-25T12:47:14.490Z,8.10
2019-02-25T12:49:44.490Z,8.33
2019-02-25T12:52:14.512Z,7.30
2019-02-25T12:54:44.674Z,8.13
2019-02-25T12:57:14.678Z,7.93
2019-02-25T12:59:45.161Z,7.63
2019-02-25T13:02:15.141Z,7.90
2019-02-25T13:04:45.372Z,8.53
2019-02-25T13:07:15.394Z,7.87
2019-02-25T13:09:45.366Z,8.73
2019-02-25T13:12:15.466Z,8.80
2019-02-25T13:14:45.705Z,7.90
2019-02-25T13:17:15.960Z,8.77
2019-02-25T13:19:46.484Z,7.90
2019-02-25T13:22:17.090Z,7.47
2019-02-25T13:24:47.530Z,7.80
2019-02-25T13:27:17.722Z,8.00
2019-02-25T13:29:49.538Z,6.80
2019-02-25T13:32:19.825Z,7.57
2019-02-25T13:34:50.205Z,8.00
2019-02-25T13:37:20.372Z,8.13
2019-02-25T13:39:50.372Z,8.27
2019-02-25T13:42:20.406Z,6.97
2019-02-25T13:44:50.453Z,7.03
2019-02-25T13:47:20.459Z,7.20
2019-02-25T13:49:50.750Z,8.50
2019-02-25T13:52:20.744Z,9.37
2019-02-25T13:54:51.249Z,8.13
2019-02-25T13:57:21.225Z,7.40
2019-02-25T13:59:51.229Z,8.00
2019-02-25T14:02:21.385Z,8.50
2019-02-25T14:04:51.391Z,8.70
2019-02-25T14:07:21.724Z,8.80
2019-02-25T14:09:52.160Z,8.23
2019-02-25T14:12:22.240Z,7.47
2019-02-25T14:14:52.301Z,7.60
2019-02-25T14:17:22.698Z,7.07
2019-02-25T14:19:53.246Z,8.10
2019-02-25T14:22:23.323Z,8.10
2019-02-25T14:24:53.353Z,8.70
2019-02-25T14:27:24.048Z,9.03
2019-02-25T14:29:54.209Z,9.60
2019-02-25T14:32:24.478Z,8.53
2019-02-25T14:34:54.713Z,8.93
2019-02-25T14:37:25.529Z,8.90
2019-02-25T14:39:56.324Z,9.00
2019-02-25T14:42:28.949Z,9.53
2019-02-25T14:45:01.037Z,10.23
2019-02-25T14:47:36.739Z,8.37
2019-02-25T14:50:02.670Z,9.40
2019-02-25T14:52:32.668Z,9.20
2019-02-25T14:55:04.789Z,9.87
2019-02-25T14:57:35.534Z,9.83
2019-02-25T15:00:07.923Z,9.60
2019-02-25T15:02:39.007Z,9.67
2019-02-25T15:05:10.808Z,9.40
2019-02-25T15:07:42.887Z,9.37
2019-02-25T15:10:13.414Z,8.67
2019-02-25T15:12:44.236Z,8.30
2019-02-25T15:15:14.797Z,8.87
2019-02-25T15:17:46.097Z,9.23
2019-02-25T15:20:18.305Z,9.13
2019-02-25T15:22:48.906Z,8.63
2019-02-25T15:25:19.469Z,8.90
2019-02-25T15:27:49.645Z,8.47
2019-02-25T15:30:22.941Z,12.00
2019-02-25T15:32:55.874Z,16.67
2019-02-25T15:35:28.823Z,31.07
2019-02-25T15:38:00.081Z,18.53
2019-02-25T15:40:29.774Z,24.80
2019-02-25T15:43:15.050Z,16.10
2019-02-25T15:45:43.210Z,10.80
2019-02-25T15:48:17.709Z,10.30
2019-02-25T15:50:50.675Z,11.03
2019-02-25T15:53:20.741Z,10.30
2019-02-25T15:55:50.805Z,9.70
2019-02-25T15:58:21.020Z,10.00
2019-02-25T16:00:51.333Z,9.43
2019-02-25T16:03:21.904Z,11.40
2019-02-25T16:05:56.813Z,24.40
2019-02-25T16:08:24.361Z,15.90
2019-02-25T16:10:57.966Z,11.40
2019-02-25T16:13:28.205Z,9.57
2019-02-25T16:15:58.658Z,8.70
2019-02-25T16:18:28.598Z,8.83
2019-02-25T16:20:59.758Z,7.83
2019-02-25T16:23:32.043Z,9.33
2019-02-25T16:26:01.836Z,10.03
2019-02-25T16:28:34.066Z,11.03
2019-02-25T16:31:06.025Z,9.40
2019-02-25T16:33:37.301Z,9.30
2019-02-25T16:36:09.567Z,8.47
2019-02-25T16:38:39.325Z,8.20
2019-02-25T16:41:10.260Z,8.90
2019-02-25T16:43:40.766Z,7.50
2019-02-25T16:46:14.070Z,8.43
2019-02-25T16:48:42.710Z,8.10
2019-02-25T16:51:12.793Z,8.20
2019-02-25T16:53:45.429Z,9.40
2019-02-25T16:56:15.006Z,8.70
2019-02-25T16:58:45.348Z,8.10
2019-02-25T17:01:15.469Z,9.27
2019-02-25T17:03:46.391Z,8.77
2019-02-25T17:06:17.729Z,8.07
2019-02-25T17:08:48.880Z,10.27
2019-02-25T17:11:21.781Z,8.80
2019-02-25T17:13:53.017Z,9.50
2019-02-25T17:16:24.181Z,8.73
2019-02-25T17:18:54.450Z,8.90
2019-02-25T17:21:26.563Z,9.17
2019-02-25T17:23:58.048Z,9.23
2019-02-25T17:26:28.134Z,8.10
2019-02-25T17:28:58.145Z,8.83
2019-02-25T17:31:30.565Z,9.80
2019-02-25T17:34:00.396Z,9.10
2019-02-25T17:36:30.615Z,8.60
2019-02-25T17:39:02.244Z,9.27
2019-02-25T17:41:33.620Z,9.93
2019-02-25T17:44:05.263Z,9.20
2019-02-25T17:46:36.930Z,8.83
2019-02-25T17:49:07.871Z,8.20
2019-02-25T17:51:39.241Z,10.43
2019-02-25T17:54:10.236Z,8.70
2019-02-25T17:56:42.948Z,9.30
2019-02-25T17:59:12.927Z,9.03
2019-02-25T18:01:43.818Z,9.83
2019-02-25T18:04:14.810Z,11.43
2019-02-25T18:06:44.794Z,11.37
2019-02-25T18:09:16.428Z,9.80
2019-02-25T18:11:47.757Z,10.67
2019-02-25T18:14:19.741Z,10.53
2019-02-25T18:16:51.098Z,9.13
2019-02-25T18:19:23.187Z,11.23
2019-02-25T18:21:53.945Z,10.50
2019-02-25T18:24:26.772Z,9.33
2019-02-25T18:26:56.042Z,9.40
2019-02-25T18:29:26.129Z,9.80
2019-02-25T18:31:57.108Z,9.07
2019-02-25T18:34:27.969Z,14.40
2019-02-25T18:36:58.765Z,12.10
2019-02-25T18:39:29.974Z,9.80
2019-02-25T18:42:01.109Z,13.17
2019-02-25T18:44:31.470Z,12.33
2019-02-25T18:47:01.610Z,12.50
2019-02-25T18:49:34.376Z,12.97
2019-02-25T18:52:07.629Z,11.03
2019-02-25T18:54:39.117Z,10.57
2019-02-25T18:57:09.810Z,15.53
2019-02-25T18:59:40.097Z,12.30
2019-02-25T19:02:12.277Z,12.70
2019-02-25T19:04:43.525Z,11.33
2019-02-25T19:07:17.426Z,11.90
2019-02-25T19:09:49.338Z,11.67
2019-02-25T19:12:20.677Z,10.90
2019-02-25T19:14:53.349Z,11.00
2019-02-25T19:17:23.257Z,13.67
2019-02-25T19:19:54.242Z,14.27
2019-02-25T19:22:26.332Z,11.60
2019-02-25T19:24:56.554Z,12.03
2019-02-25T19:27:27.767Z,12.53
2019-02-25T19:30:00.285Z,11.90
2019-02-25T19:32:30.556Z,9.63
2019-02-25T19:35:03.979Z,9.97
2019-02-25T19:37:36.882Z,9.10
2019-02-25T19:40:11.881Z,8.83
2019-02-25T19:42:37.757Z,9.80
2019-02-25T19:45:10.091Z,9.27
2019-02-25T19:47:41.100Z,8.87
2019-02-25T19:50:13.688Z,7.90
2019-02-25T19:52:44.731Z,7.50
2019-02-25T19:55:19.328Z,9.13
2019-02-25T19:57:48.346Z,11.10
2019-02-25T20:00:24.987Z,8.87
2019-02-25T20:03:04.829Z,10.37
2019-02-25T20:05:27.457Z,8.47
2019-02-25T20:07:57.600Z,7.77
2019-02-25T20:10:30.131Z,8.40
2019-02-25T20:13:00.407Z,7.53
2019-02-25T20:15:31.334Z,7.13
2019-02-25T20:18:01.378Z,6.90
2019-02-25T20:20:36.430Z,10.77
2019-02-25T20:23:08.424Z,8.67
2019-02-25T20:25:38.180Z,9.00
2019-02-25T20:28:08.139Z,8.60
2019-02-25T20:30:38.220Z,8.10
2019-02-25T20:33:08.705Z,7.87
2019-02-25T20:35:40.683Z,8.07
2019-02-25T20:38:11.157Z,7.93
2019-02-25T20:40:41.269Z,7.60
2019-02-25T20:43:11.778Z,9.40
2019-02-25T20:45:42.741Z,9.53
2019-02-25T20:48:12.919Z,9.23
2019-02-25T20:50:42.885Z,9.90
2019-02-25T20:53:12.981Z,8.70
2019-02-25T20:55:43.194Z,8.47
2019-02-25T20:58:14.433Z,9.00
2019-02-25T21:00:47.063Z,9.80
2019-02-25T21:03:18.930Z,9.07
2019-02-25T21:05:49.941Z,9.30
2019-02-25T21:08:21.371Z,10.33
2019-02-25T21:10:51.860Z,9.57
2019-02-25T21:13:25.962Z,8.53
2019-02-25T21:15:53.782Z,8.97
2019-02-25T21:18:24.661Z,8.30
2019-02-25T21:20:55.885Z,9.10
2019-02-25T21:23:26.217Z,7.53
2019-02-25T21:25:58.085Z,8.20
2019-02-25T21:28:30.974Z,7.97
2019-02-25T21:31:02.608Z,7.90
2019-02-25T21:33:33.009Z,10.57
2019-02-25T21:36:03.365Z,9.73
2019-02-25T21:38:33.677Z,8.03
2019-02-25T21:41:04.320Z,8.60
2019-02-25T21:43:34.695Z,9.57
2019-02-25T21:46:05.222Z,9.23
2019-02-25T21:48:36.878Z,8.60
2019-02-25T21:51:08.007Z,9.73
2019-02-25T21:53:38.870Z,10.13
2019-02-25T21:56:09.165Z,9.10
2019-02-25T21:58:39.165Z,9.03
2019-02-25T22:01:09.204Z,8.90
2019-02-25T22:03:41.431Z,9.53
2019-02-25T22:06:12.176Z,14.33
2019-02-25T22:08:42.724Z,21.77
2019-02-25T22:11:16.774Z,22.07
2019-02-25T22:13:44.682Z,20.30
2019-02-25T22:16:14.941Z,11.30
2019-02-25T22:18:45.521Z,11.97
2019-02-25T22:21:17.213Z,11.00
2019-02-25T22:23:49.476Z,11.37
2019-02-25T22:26:19.208Z,11.43
2019-02-25T22:28:50.877Z,12.57
2019-02-25T22:31:21.282Z,10.47
2019-02-25T22:33:51.813Z,13.93
2019-02-25T22:36:21.857Z,12.43
2019-02-25T22:38:52.144Z,12.13
2019-02-25T22:41:22.942Z,10.10
2019-02-25T22:43:54.157Z,8.40
2019-02-25T22:46:28.175Z,8.20
2019-02-25T22:48:56.260Z,13.97
2019-02-25T22:51:28.181Z,32.77
2019-02-25T22:53:58.581Z,29.33
2019-02-25T22:56:28.657Z,16.30
2019-02-25T22:59:00.379Z,18.87
2019-02-25T23:01:31.538Z,9.87
2019-02-25T23:04:01.817Z,11.73
2019-02-25T23:06:31.851Z,8.80
2019-02-25T23:09:01.937Z,8.57
2019-02-25T23:11:31.933Z,11.10
2019-02-25T23:14:02.012Z,17.97
2019-02-25T23:16:32.092Z,23.83
2019-02-25T23:19:02.241Z,21.70
2019-02-25T23:21:33.999Z,11.87
2019-02-25T23:24:05.580Z,18.00
2019-02-25T23:26:35.516Z,21.60
2019-02-25T23:29:05.496Z,14.33
2019-02-25T23:31:35.709Z,8.10
2019-02-25T23:34:08.006Z,7.97
2019-02-25T23:36:42.845Z,15.97
2019-02-25T23:39:11.491Z,9.73
2019-02-25T23:41:43.932Z,16.57
2019-02-25T23:44:15.137Z,16.60
2019-02-25T23:46:45.964Z,11.03
2019-02-25T23:49:16.474Z,9.43
2019-02-25T23:51:48.134Z,7.93
2019-02-25T23:54:18.910Z,7.30
2019-02-25T23:56:54.006Z,8.00
2019-02-25T23:59:24.748Z,10.93
